Time;durP1;ratioP1;P1;durP2;ratioP2;P2;SDS_P1;SDS_P2;PMS_P1;PMS_P2;Temp;Humidity;BMP_temperature;BMP_pressure;BME280_temperature;BME280_humidity;BME280_pressure;Samples;Min_cycle;Max_cycle;Signal;HPM_P1;HPM_P2
2023/09/14 00:01:54;;;;;;;0.00;0.00;;;;;;;11.90;89.87;100980.31;5000252;28;20479;-76
2023/09/14 00:04:20;;;;;;;0.00;0.00;;;;;;;11.90;89.96;100983.06;4959520;28;20380;-76
2023/09/14 00:06:45;;;;;;;0.00;0.00;;;;;;;11.87;90.06;100962.47;5005805;28;20056;-75
2023/09/14 00:09:11;;;;;;;0.00;0.00;;;;;;;11.86;89.82;100972.63;4953863;28;20067;-75
2023/09/14 00:11:36;;;;;;;0.00;0.00;;;;;;;11.80;89.94;100968.19;4993553;28;20033;-75
2023/09/14 00:14:02;;;;;;;0.00;0.00;;;;;;;11.78;89.73;100964.88;4955559;28;20026;-76
2023/09/14 00:16:27;;;;;;;0.00;0.00;;;;;;;11.77;89.79;100967.88;5012916;28;20049;-76
2023/09/14 00:18:52;;;;;;;0.00;0.00;;;;;;;11.74;90.03;100972.00;4991813;28;20026;-75
2023/09/14 00:21:18;;;;;;;0.00;0.00;;;;;;;11.72;90.29;100981.56;4962238;28;20516;-75
2023/09/14 00:23:43;;;;;;;0.00;0.00;;;;;;;11.73;90.65;100978.53;4973601;28;20038;-75
2023/09/14 00:26:10;;;;;;;0.00;0.00;;;;;;;11.70;90.48;100979.88;4974143;28;20053;-76
2023/09/14 00:28:35;;;;;;;0.05;0.05;;;;;;;11.68;90.23;100970.25;4962253;28;20798;-75
2023/09/14 00:31:00;;;;;;;0.00;0.00;;;;;;;11.72;90.50;100973.31;4999636;28;20112;-76
2023/09/14 00:33:26;;;;;;;0.00;0.00;;;;;;;11.67;89.68;100958.50;4950543;28;20037;-75
2023/09/14 00:35:51;;;;;;;0.00;0.00;;;;;;;11.68;90.18;100962.06;4983878;28;20117;-75
2023/09/14 00:38:17;;;;;;;0.00;0.00;;;;;;;11.69;90.15;100966.44;4981068;28;20038;-75
2023/09/14 00:40:42;;;;;;;0.00;0.00;;;;;;;11.73;89.90;100961.28;5000127;28;20037;-77
2023/09/14 00:43:08;;;;;;;0.00;0.00;;;;;;;11.76;90.06;100952.53;4998630;28;20022;-76
2023/09/14 00:45:34;;;;;;;0.00;0.00;;;;;;;11.82;89.94;100959.72;4951033;28;20482;-74
2023/09/14 00:48:02;;;;;;;0.00;0.00;;;;;;;11.91;89.65;100960.88;4976757;28;20049;-76
2023/09/14 00:50:29;;;;;;;0.00;0.00;;;;;;;11.93;89.43;100950.53;4984248;28;20380;-75
2023/09/14 00:53:06;;;;;;;0.00;0.00;;;;;;;11.94;89.26;100952.16;5002884;28;20025;-75
2023/09/14 00:55:32;;;;;;;0.00;0.00;;;;;;;11.92;88.66;100948.84;5001381;28;21510;-75
2023/09/14 00:57:59;;;;;;;0.00;0.00;;;;;;;11.89;89.44;100943.88;5000816;28;20101;-74
2023/09/14 01:00:25;;;;;;;0.00;0.00;;;;;;;11.79;89.76;100938.31;5000396;28;20029;-74
2023/09/14 01:02:52;;;;;;;0.00;0.00;;;;;;;11.76;89.64;100950.63;5002302;28;20451;-75
2023/09/14 01:05:18;;;;;;;0.00;0.00;;;;;;;11.68;89.47;100943.72;5012279;28;20018;-75
2023/09/14 01:07:44;;;;;;;0.00;0.00;;;;;;;11.68;89.79;100938.25;5009051;28;20167;-75
2023/09/14 01:10:15;;;;;;;0.00;0.00;;;;;;;11.67;89.88;100942.06;5002350;28;21284;-75
2023/09/14 01:12:48;;;;;;;0.00;0.00;;;;;;;11.69;90.38;100950.00;4970013;28;20052;-74
2023/09/14 01:15:24;;;;;;;0.00;0.00;;;;;;;11.69;90.48;100950.81;5014659;28;20060;-74
2023/09/14 01:18:06;;;;;;;0.00;0.00;;;;;;;11.66;90.55;100951.34;4991698;28;20358;-76
2023/09/14 01:21:09;;;;;;;0.00;0.00;;;;;;;11.66;89.70;100950.53;4996190;28;20026;-76
2023/09/14 01:23:57;;;;;;;0.00;0.00;;;;;;;11.63;89.94;100951.88;5002999;28;20028;-75
2023/09/14 01:26:23;;;;;;;0.00;0.00;;;;;;;11.54;90.21;100937.00;4988379;28;20127;-75
2023/09/14 01:28:48;;;;;;;0.00;0.00;;;;;;;11.55;90.30;100941.41;4968976;28;20158;-75
2023/09/14 01:31:14;;;;;;;0.00;0.00;;;;;;;11.59;89.57;100938.97;5004296;28;20836;-77
2023/09/14 01:33:41;;;;;;;0.00;0.00;;;;;;;11.67;89.73;100953.00;4959950;28;20034;-75
2023/09/14 01:36:19;;;;;;;0.00;0.00;;;;;;;11.77;89.55;100935.00;4954162;28;20050;-75
2023/09/14 01:38:46;;;;;;;0.00;0.00;;;;;;;11.82;89.00;100944.09;4968137;28;20464;-75
2023/09/14 01:41:12;;;;;;;0.00;0.00;;;;;;;11.79;89.16;100947.34;5003597;28;20025;-73
2023/09/14 01:43:41;;;;;;;0.00;0.00;;;;;;;11.74;88.64;100946.47;4990034;28;20034;-74
2023/09/14 01:46:07;;;;;;;0.00;0.00;;;;;;;11.71;88.76;100947.84;4986766;28;20022;-74
2023/09/14 01:48:33;;;;;;;0.00;0.00;;;;;;;11.52;89.26;100925.47;4985104;28;20496;-74
2023/09/14 01:50:58;;;;;;;0.00;0.00;;;;;;;11.63;89.25;100943.66;4982676;28;20049;-75
2023/09/14 01:53:24;;;;;;;0.00;0.00;;;;;;;11.57;89.48;100941.97;4963803;28;20048;-74
2023/09/14 01:55:50;;;;;;;0.00;0.00;;;;;;;11.58;89.22;100948.25;4950980;28;20030;-74
2023/09/14 01:58:16;;;;;;;0.00;0.00;;;;;;;11.52;89.67;100941.91;4993618;28;20030;-74
2023/09/14 02:00:41;;;;;;;0.00;0.00;;;;;;;11.49;89.34;100934.22;4972154;28;20022;-73
2023/09/14 02:03:07;;;;;;;0.00;0.00;;;;;;;11.44;89.64;100931.44;4987904;28;20130;-76
2023/09/14 02:05:32;;;;;;;0.00;0.00;;;;;;;11.37;89.21;100930.81;4964412;28;20517;-75
2023/09/14 02:07:57;;;;;;;0.00;0.00;;;;;;;11.35;89.81;100939.31;4985153;28;20038;-75
2023/09/14 02:10:23;;;;;;;0.00;0.00;;;;;;;11.33;90.01;100941.44;5004111;28;20026;-74
2023/09/14 02:12:51;;;;;;;0.00;0.00;;;;;;;11.33;89.82;100939.56;4978671;28;20026;-75
2023/09/14 02:15:17;;;;;;;0.00;0.00;;;;;;;11.28;90.04;100931.28;4993267;28;20038;-74
2023/09/14 02:17:43;;;;;;;0.00;0.00;;;;;;;11.24;89.87;100935.59;4998552;28;20738;-75
2023/09/14 02:20:09;;;;;;;0.00;0.00;;;;;;;11.24;90.03;100937.53;4992482;28;20084;-76
2023/09/14 02:22:35;;;;;;;0.00;0.00;;;;;;;11.21;89.97;100938.06;4946826;28;20113;-76
2023/09/14 02:25:01;;;;;;;0.00;0.00;;;;;;;11.11;90.22;100928.66;4998564;28;20895;-76
2023/09/14 02:27:27;;;;;;;0.00;0.00;;;;;;;11.12;90.67;100940.44;4970748;28;20050;-75
2023/09/14 02:29:53;;;;;;;0.00;0.00;;;;;;;11.08;90.76;100939.28;4985999;28;20031;-76
2023/09/14 02:32:19;;;;;;;0.00;0.00;;;;;;;11.06;90.59;100941.47;5016294;28;20030;-76
2023/09/14 02:34:44;;;;;;;0.00;0.00;;;;;;;11.05;90.82;100951.56;5006118;28;20068;-75
2023/09/14 02:37:09;;;;;;;0.00;0.00;;;;;;;10.99;90.85;100941.63;4995644;28;20021;-76
2023/09/14 02:39:35;;;;;;;0.00;0.00;;;;;;;10.97;91.14;100943.81;5003594;28;20026;-76
2023/09/14 02:42:00;;;;;;;0.00;0.00;;;;;;;10.93;91.16;100935.28;4963201;28;20029;-73
2023/09/14 02:44:26;;;;;;;0.10;0.10;;;;;;;10.91;91.16;100937.47;4973268;28;20042;-74
2023/09/14 02:46:51;;;;;;;0.00;0.00;;;;;;;10.88;91.43;100935.22;4982648;28;20036;-75
2023/09/14 02:49:16;;;;;;;0.00;0.00;;;;;;;10.86;91.93;100937.38;5015879;28;21261;-74
2023/09/14 02:51:42;;;;;;;0.00;0.00;;;;;;;10.84;91.47;100934.09;4983293;28;20065;-74
2023/09/14 02:54:07;;;;;;;0.00;0.00;;;;;;;10.81;92.13;100935.41;4985556;28;20123;-73
2023/09/14 02:56:33;;;;;;;0.00;0.00;;;;;;;10.80;92.15;100932.94;4978374;28;20388;-75
2023/09/14 02:58:58;;;;;;;0.00;0.00;;;;;;;10.78;92.35;100940.59;4964591;28;20030;-75
2023/09/14 03:01:23;;;;;;;0.00;0.00;;;;;;;10.70;92.34;100932.81;4992808;28;20384;-74
2023/09/14 03:03:49;;;;;;;0.00;0.00;;;;;;;10.62;92.43;100928.63;5002613;28;20044;-74
2023/09/14 03:06:14;;;;;;;0.10;0.10;;;;;;;10.68;92.70;100938.53;5005921;28;20496;-75
2023/09/14 03:08:40;;;;;;;0.00;0.00;;;;;;;10.64;92.89;100935.50;5011510;28;20049;-74
2023/09/14 03:11:05;;;;;;;0.00;0.00;;;;;;;10.61;93.25;100925.03;4997006;28;20108;-75
2023/09/14 03:13:31;;;;;;;0.00;0.00;;;;;;;10.60;92.68;100925.28;4993308;28;20030;-73
2023/09/14 03:15:58;;;;;;;0.03;0.03;;;;;;;10.57;93.13;100917.59;5003887;28;20109;-75
2023/09/14 03:18:25;;;;;;;0.00;0.00;;;;;;;10.54;93.35;100918.97;4981598;28;20520;-75
2023/09/14 03:20:54;;;;;;;0.00;0.00;;;;;;;10.54;93.29;100918.97;4969158;28;20515;-74
2023/09/14 03:23:20;;;;;;;0.00;0.00;;;;;;;10.49;93.74;100916.16;5010690;28;20179;-75
2023/09/14 03:25:48;;;;;;;0.00;0.00;;;;;;;10.41;94.03;100905.63;4973254;28;20710;-75
2023/09/14 03:28:14;;;;;;;0.00;0.00;;;;;;;10.43;93.85;100917.16;4973932;28;20026;-75
2023/09/14 03:30:40;;;;;;;0.00;0.00;;;;;;;10.40;93.48;100909.47;4994096;28;20034;-74
2023/09/14 03:33:05;;;;;;;0.00;0.00;;;;;;;10.40;93.96;100912.22;4966647;28;20120;-75
2023/09/14 03:35:31;;;;;;;0.00;0.00;;;;;;;10.36;93.66;100903.66;5009233;28;20022;-74
2023/09/14 03:37:56;;;;;;;0.00;0.00;;;;;;;10.33;93.48;100900.59;4976050;28;20034;-76
2023/09/14 03:40:22;;;;;;;0.00;0.00;;;;;;;10.33;94.14;100895.13;5004946;28;20037;-75
2023/09/14 03:42:48;;;;;;;0.00;0.00;;;;;;;10.36;94.11;100902.84;4981992;28;20044;-74
2023/09/14 03:45:14;;;;;;;0.00;0.00;;;;;;;10.31;94.18;100900.84;4955504;28;20027;-74
2023/09/14 03:47:39;;;;;;;0.00;0.00;;;;;;;10.31;94.66;100900.84;4996029;28;20032;-75
2023/09/14 03:50:06;;;;;;;0.00;0.00;;;;;;;10.10;94.51;100878.72;4986048;28;20490;-75
2023/09/14 03:52:31;;;;;;;0.00;0.00;;;;;;;10.24;94.84;100902.94;4976769;28;20025;-76
2023/09/14 03:54:56;;;;;;;0.00;0.00;;;;;;;10.21;94.40;100893.31;4993188;28;20029;-75
2023/09/14 03:57:24;;;;;;;0.00;0.00;;;;;;;10.12;94.65;100884.75;4988107;28;20057;-74
2023/09/14 03:59:53;;;;;;;0.00;0.00;;;;;;;10.11;94.70;100890.44;5007970;28;20033;-75
2023/09/14 04:02:18;;;;;;;0.00;0.00;;;;;;;10.12;94.98;100890.19;4966404;28;20113;-75
2023/09/14 04:04:44;;;;;;;0.00;0.00;;;;;;;10.14;94.82;100898.97;4973275;28;20552;-75
2023/09/14 04:07:10;;;;;;;0.00;0.00;;;;;;;10.14;94.91;100892.69;5009953;28;20129;-73
2023/09/14 04:09:36;;;;;;;0.00;0.00;;;;;;;10.14;94.81;100887.22;5010492;28;20026;-74
2023/09/14 04:12:02;;;;;;;0.00;0.00;;;;;;;10.12;94.74;100883.91;4992164;28;20403;-75
2023/09/14 04:14:27;;;;;;;0.00;0.00;;;;;;;10.14;95.05;100881.75;5026417;28;20033;-74
2023/09/14 04:16:57;;;;;;;0.00;0.00;;;;;;;10.12;95.16;100873.00;5000417;28;20438;-76
2023/09/14 04:19:24;;;;;;;0.00;0.00;;;;;;;10.14;95.51;100870.81;4963566;28;20038;-76
2023/09/14 04:21:49;;;;;;;0.03;0.03;;;;;;;10.17;95.33;100881.25;5007871;28;20025;-75
2023/09/14 04:24:15;;;;;;;0.00;0.00;;;;;;;10.15;95.61;100872.47;4982995;28;20531;-75
2023/09/14 04:26:40;;;;;;;0.00;0.00;;;;;;;10.04;95.64;100865.22;4990266;28;20030;-74
2023/09/14 04:29:06;;;;;;;0.00;0.00;;;;;;;9.95;95.26;100867.53;4994147;28;20033;-74
2023/09/14 04:31:31;;;;;;;0.00;0.00;;;;;;;9.97;95.58;100876.31;4981191;28;20029;-76
2023/09/14 04:33:57;;;;;;;0.00;0.00;;;;;;;10.03;95.64;100885.41;5011669;28;20375;-76
2023/09/14 04:36:23;;;;;;;0.00;0.00;;;;;;;10.01;96.00;100882.94;5002396;28;20029;-75
2023/09/14 04:38:49;;;;;;;0.00;0.00;;;;;;;9.93;96.23;100876.00;5011036;28;20033;-75
2023/09/14 04:41:15;;;;;;;0.00;0.00;;;;;;;9.85;96.32;100879.13;5012053;28;20089;-74
2023/09/14 04:43:40;;;;;;;0.00;0.00;;;;;;;9.79;96.80;100875.50;4974992;28;20038;-76
2023/09/14 04:46:06;;;;;;;0.00;0.00;;;;;;;9.76;96.67;100875.19;5000121;28;20464;-74
2023/09/14 04:48:31;;;;;;;0.00;0.00;;;;;;;9.73;96.77;100881.16;5009754;28;20046;-75
2023/09/14 04:50:58;;;;;;;0.00;0.00;;;;;;;9.69;97.11;100888.19;4990543;28;20060;-74
2023/09/14 04:53:27;;;;;;;0.10;0.10;;;;;;;9.69;97.36;100897.19;5001806;28;20030;-75
2023/09/14 04:55:53;;;;;;;0.00;0.00;;;;;;;9.65;97.37;100889.75;5008674;28;20529;-74
2023/09/14 04:58:19;;;;;;;0.00;0.00;;;;;;;9.63;97.99;100886.44;5011498;28;20045;-76
2023/09/14 05:00:48;;;;;;;0.00;0.00;;;;;;;9.57;97.61;100894.53;5006091;28;20573;-75
2023/09/14 05:03:14;;;;;;;0.00;0.00;;;;;;;9.57;97.85;100902.72;4966420;28;20050;-75
2023/09/14 05:05:39;;;;;;;0.00;0.00;;;;;;;9.54;98.07;100900.50;5024576;28;20430;-73
2023/09/14 05:08:06;;;;;;;0.00;0.00;;;;;;;9.45;98.11;100896.53;4975496;28;20034;-74
2023/09/14 05:10:31;;;;;;;0.00;0.00;;;;;;;9.40;98.32;100900.00;5009999;28;20030;-75
2023/09/14 05:12:57;;;;;;;0.00;0.00;;;;;;;9.29;98.22;100889.13;5019132;28;20025;-75
2023/09/14 05:15:22;;;;;;;0.00;0.00;;;;;;;9.36;98.66;100904.31;5005304;28;20040;-74
2023/09/14 05:17:48;;;;;;;0.00;0.00;;;;;;;9.35;98.63;100897.19;5009328;28;20439;-75
2023/09/14 05:20:14;;;;;;;0.00;0.00;;;;;;;9.38;98.69;100901.31;5004933;28;20026;-75
2023/09/14 05:22:41;;;;;;;0.00;0.00;;;;;;;9.43;98.86;100906.84;4969041;28;20030;-74
2023/09/14 05:25:07;;;;;;;0.00;0.00;;;;;;;9.49;98.57;100914.09;5016576;28;20108;-75
2023/09/14 05:27:39;;;;;;;0.00;0.00;;;;;;;9.45;98.68;100902.00;5008640;28;20033;-75
2023/09/14 05:30:06;;;;;;;0.00;0.00;;;;;;;9.51;98.70;100909.19;5005607;28;20096;-76
2023/09/14 05:32:32;;;;;;;0.00;0.00;;;;;;;9.49;98.42;100897.69;4988584;28;20029;-75
2023/09/14 05:34:58;;;;;;;0.00;0.00;;;;;;;9.53;98.68;100901.56;4957500;28;20038;-74
2023/09/14 05:37:24;;;;;;;0.00;0.00;;;;;;;9.52;98.37;100891.75;4969449;28;20029;-74
2023/09/14 05:39:49;;;;;;;0.00;0.00;;;;;;;9.61;98.56;100895.72;5009169;28;20022;-74
2023/09/14 05:42:15;;;;;;;0.00;0.00;;;;;;;9.57;98.67;100883.63;5006634;28;20162;-75
2023/09/14 05:44:40;;;;;;;0.00;0.00;;;;;;;9.68;98.58;100898.28;5002740;28;20037;-75
2023/09/14 05:47:08;;;;;;;0.00;0.00;;;;;;;9.58;98.07;100882.56;4991183;28;20041;-74
2023/09/14 05:49:33;;;;;;;0.00;0.00;;;;;;;9.54;98.90;100875.94;5001043;28;20481;-74
2023/09/14 05:52:03;;;;;;;0.00;0.00;;;;;;;9.65;98.49;100897.94;4994386;28;20030;-75
2023/09/14 05:54:39;;;;;;;0.00;0.00;;;;;;;9.59;99.10;100897.88;5010197;28;20034;-76
2023/09/14 05:57:12;;;;;;;0.00;0.00;;;;;;;9.36;98.81;100870.69;4949721;28;20025;-74
2023/09/14 06:00:08;;;;;;;0.00;0.00;;;;;;;9.52;98.72;100896.34;5005564;28;20372;-75
2023/09/14 06:02:34;;;;;;;0.00;0.00;;;;;;;9.57;98.88;100910.94;4998911;28;20168;-75
2023/09/14 06:05:02;;;;;;;0.00;0.00;;;;;;;9.53;98.62;100904.28;5002487;28;20116;-75
2023/09/14 06:07:28;;;;;;;0.00;0.00;;;;;;;9.53;98.38;100893.38;5009525;28;20056;-76
2023/09/14 06:09:53;;;;;;;0.00;0.00;;;;;;;9.60;98.05;100907.69;4987379;28;20110;-77
2023/09/14 06:12:19;;;;;;;0.00;0.00;;;;;;;9.63;98.05;100902.84;4978767;28;20033;-78
2023/09/14 06:14:44;;;;;;;0.00;0.00;;;;;;;9.67;98.54;100904.00;4969725;28;20040;-77
2023/09/14 06:17:10;;;;;;;0.00;0.00;;;;;;;9.70;97.97;100903.50;4979869;28;20030;-75
2023/09/14 06:19:35;;;;;;;0.00;0.00;;;;;;;9.77;98.13;100904.97;4974153;28;20041;-76
2023/09/14 06:22:01;;;;;;;0.00;0.00;;;;;;;9.84;97.62;100904.81;4985858;28;20018;-76
2023/09/14 06:24:26;;;;;;;0.10;0.10;;;;;;;9.83;97.45;100899.56;4983814;28;20029;-78
2023/09/14 06:26:52;;;;;;;0.00;0.00;;;;;;;9.88;97.06;100900.50;4959823;28;20507;-76
2023/09/14 06:29:17;;;;;;;0.00;0.00;;;;;;;9.95;97.28;100901.16;5001340;28;20403;-77
2023/09/14 06:31:43;;;;;;;0.00;0.00;;;;;;;10.03;96.67;100907.25;4991859;28;20727;-74
2023/09/14 06:34:08;;;;;;;0.00;0.00;;;;;;;10.13;96.59;100912.88;4984881;28;20511;-75
2023/09/14 06:36:34;;;;;;;0.00;0.00;;;;;;;10.19;96.26;100911.91;4974987;28;20029;-78
2023/09/14 06:39:09;;;;;;;0.00;0.00;;;;;;;10.24;96.58;100903.75;4987960;28;20030;-76
2023/09/14 06:41:35;;;;;;;0.00;0.00;;;;;;;10.35;96.12;100898.47;5002786;28;20036;-76
2023/09/14 06:44:00;;;;;;;0.00;0.00;;;;;;;10.57;95.73;100912.97;4977667;28;20389;-73
2023/09/14 06:46:26;;;;;;;0.00;0.00;;;;;;;10.79;95.63;100920.34;5002661;28;20135;-75
2023/09/14 06:48:54;;;;;;;0.00;0.00;;;;;;;10.96;95.29;100923.81;5004159;28;20039;-76
2023/09/14 06:51:28;;;;;;;0.00;0.00;;;;;;;11.11;95.05;100919.59;4986017;28;20125;-78
2023/09/14 06:54:10;;;;;;;0.00;0.00;;;;;;;11.37;94.94;100925.34;4959599;28;20038;-80
2023/09/14 06:56:35;;;;;;;0.10;0.10;;;;;;;11.31;93.76;100877.91;5004698;28;20030;-78
2023/09/14 06:59:01;;;;;;;0.00;0.00;;;;;;;11.52;93.92;100889.88;4980107;28;20652;-76
2023/09/14 07:01:29;;;;;;;0.00;0.00;;;;;;;11.83;92.88;100917.53;5005445;28;20476;-74
2023/09/14 07:03:55;;;;;;;0.00;0.00;;;;;;;11.79;93.06;100910.91;4996119;28;20037;-73
2023/09/14 07:06:20;;;;;;;0.00;0.00;;;;;;;11.83;93.05;100906.56;5019178;28;20037;-75
2023/09/14 10:16:53;;;;;;;0.00;0.00;;;;;;;43.18;17.28;100874.22;4983327;28;20047;-75
2023/09/14 10:19:28;;;;;;;0.00;0.00;;;;;;;44.42;16.79;100873.44;4959898;28;20042;-74
2023/09/14 10:22:09;;;;;;;;;;;;;;;;;;;;;
2023/09/14 10:24:37;;;;;;;0.00;0.00;;;;;;;43.83;16.34;100853.81;4961414;28;20026;-76
2023/09/14 10:27:24;;;;;;;0.00;0.00;;;;;;;43.62;16.47;100852.00;4967380;28;20048;-76
2023/09/14 10:30:06;;;;;;;0.00;0.00;;;;;;;44.17;16.83;100868.16;4982825;28;20392;-76
2023/09/14 10:32:39;;;;;;;0.00;0.00;;;;;;;44.83;15.51;100846.97;4982292;28;20030;-74
2023/09/14 10:35:34;;;;;;;;;;;;;;;;;;;;;
2023/09/14 10:38:08;;;;;;;0.00;0.00;;;;;;;43.85;15.17;100828.19;4980413;28;20056;-74
2023/09/14 10:40:37;;;;;;;0.00;0.00;;;;;;;43.61;15.16;100865.59;4990360;28;20037;-75
2023/09/14 10:43:23;;;;;;;0.00;0.00;;;;;;;42.30;16.65;100869.13;4978581;28;20092;-75
2023/09/14 10:46:08;;;;;;;;;;;;;;;;;;;;;
2023/09/14 10:48:34;;;;;;;0.00;0.00;;;;;;;42.96;16.60;100862.09;4989034;28;20022;-75
2023/09/14 10:51:00;;;;;;;0.00;0.00;;;;;;;43.36;16.42;100855.28;4969463;28;20036;-75
2023/09/14 10:53:28;;;;;;;0.00;0.00;;;;;;;43.77;15.49;100864.41;4991021;28;20036;-74
2023/09/14 10:56:02;;;;;;;0.00;0.00;;;;;;;43.37;15.52;100839.59;4989046;28;20033;-75
2023/09/14 10:58:40;;;;;;;0.00;0.00;;;;;;;42.27;16.31;100824.91;4942343;28;20038;-74
2023/09/14 11:01:10;;;;;;;0.00;0.00;;;;;;;42.85;16.76;100854.75;4983783;28;20022;-75
2023/09/14 11:04:17;;;;;;;0.00;0.00;;;;;;;43.69;15.74;100838.03;4967619;28;20041;-73
2023/09/14 11:06:51;;;;;;;0.00;0.00;;;;;;;44.50;14.70;100847.09;4882877;29;20180;-75
2023/09/14 11:09:25;;;;;;;0.00;0.00;;;;;;;44.86;14.93;100851.75;4901945;29;20368;-74
2023/09/14 11:11:51;;;;;;;0.00;0.00;;;;;;;44.60;15.45;100840.75;4935530;28;20053;-73
2023/09/14 11:14:17;;;;;;;0.00;0.00;;;;;;;45.05;14.61;100840.03;4965443;28;20022;-73
2023/09/14 11:16:53;;;;;;;0.00;0.00;;;;;;;44.71;14.33;100843.06;4971962;28;20353;-75
2023/09/14 11:19:30;;;;;;;0.00;0.00;;;;;;;45.40;14.16;100847.94;4966244;28;20030;-73
2023/09/14 11:22:12;;;;;;;0.00;0.00;;;;;;;44.94;14.63;100834.84;4978178;28;20030;-74
2023/09/14 11:24:38;;;;;;;0.00;0.00;;;;;;;45.60;14.52;100838.56;4956822;28;20030;-75
2023/09/14 11:27:04;;;;;;;0.00;0.00;;;;;;;45.98;13.55;100839.63;4951198;28;20041;-76
2023/09/14 11:29:32;;;;;;;0.00;0.00;;;;;;;44.11;14.33;100842.13;4980196;28;20099;-74
2023/09/14 11:32:09;;;;;;;0.00;0.00;;;;;;;43.58;15.41;100829.94;4990535;28;20050;-74
2023/09/14 11:34:37;;;;;;;0.00;0.00;;;;;;;45.90;14.60;100842.16;4982712;28;20037;-75
2023/09/14 11:37:15;;;;;;;0.00;0.00;;;;;;;45.89;13.79;100837.69;4984545;28;20022;-75
2023/09/14 11:39:41;;;;;;;0.00;0.00;;;;;;;42.36;16.07;100832.72;4987390;28;20030;-75
2023/09/14 11:42:11;;;;;;;0.00;0.00;;;;;;;42.05;16.29;100807.81;4966029;28;20022;-75
2023/09/14 11:44:53;;;;;;;0.00;0.00;;;;;;;42.47;16.91;100826.53;4958115;28;20274;-74
2023/09/14 11:47:19;;;;;;;0.00;0.00;;;;;;;39.74;18.52;100830.81;4961157;28;21152;-75
2023/09/14 11:49:47;;;;;;;0.00;0.00;;;;;;;42.23;17.30;100823.47;4980497;28;20436;-74
2023/09/14 11:52:18;;;;;;;0.00;0.00;;;;;;;45.43;15.31;100829.63;4970442;28;20033;-76
2023/09/14 11:54:47;;;;;;;0.00;0.00;;;;;;;47.86;13.09;100835.13;4970409;28;20416;-75
2023/09/14 11:57:13;;;;;;;0.00;0.00;;;;;;;48.29;13.74;100819.75;4971789;28;20112;-75
2023/09/14 11:59:39;;;;;;;0.00;0.00;;;;;;;49.79;12.30;100801.28;4958596;28;20165;-76
2023/09/14 12:02:05;;;;;;;0.00;0.00;;;;;;;50.16;11.76;100810.13;4966712;28;20045;-74
2023/09/14 12:04:31;;;;;;;0.00;0.00;;;;;;;49.75;11.69;100794.94;4993756;28;20294;-75
2023/09/14 12:06:58;;;;;;;0.00;0.00;;;;;;;48.93;11.61;100802.72;4962278;28;20042;-76
2023/09/14 12:09:40;;;;;;;0.00;0.00;;;;;;;48.86;12.28;100790.88;4986702;28;20030;-75
2023/09/14 12:12:10;;;;;;;0.00;0.00;;;;;;;50.46;10.85;100811.00;4968680;28;20114;-76
2023/09/14 12:14:46;;;;;;;0.00;0.00;;;;;;;50.23;11.21;100781.25;4979922;28;20092;-75
2023/09/14 12:17:23;;;;;;;0.00;0.00;;;;;;;51.85;10.76;100778.75;4979636;28;20037;-75
2023/09/14 12:20:20;;;;;;;;;;;;;;;;;;;;;
2023/09/14 12:25:40;;;;;;;0.00;0.00;;;;;;;52.52;10.40;100777.00;4985303;28;21132;-75
2023/09/14 12:28:09;;;;;;;0.00;0.00;;;;;;;53.65;9.05;100782.13;4965918;28;20373;-75
2023/09/14 12:30:42;;;;;;;0.00;0.00;;;;;;;53.31;9.65;100779.88;4991593;28;20030;-75
2023/09/14 12:33:20;;;;;;;;;;;;;;;;;;;;;
2023/09/14 12:35:58;;;;;;;0.00;0.00;;;;;;;48.04;12.18;100775.13;4975755;28;20022;-76
2023/09/14 12:38:41;;;;;;;0.00;0.00;;;;;;;46.44;13.05;100749.28;4971675;28;20062;-75
2023/09/14 12:41:19;;;;;;;0.00;0.00;;;;;;;43.28;15.02;100733.19;4965190;28;20335;-74
2023/09/14 12:43:53;;;;;;;0.00;0.00;;;;;;;41.45;16.36;100729.53;4991532;28;20037;-74
2023/09/14 12:46:30;;;;;;;;;;;;;;;;;;;;;
2023/09/14 12:49:14;;;;;;;;;;;;;;;;;;;;;
2023/09/14 12:51:56;;;;;;;0.00;0.00;;;;;;;46.16;13.22;100746.06;4986260;28;20033;-75
2023/09/14 12:54:27;;;;;;;0.00;0.00;;;;;;;49.03;12.34;100744.44;4967815;28;20045;-75
2023/09/14 12:57:09;;;;;;;0.00;0.00;;;;;;;50.09;10.74;100750.41;4991585;28;20372;-75
2023/09/14 12:59:58;;;;;;;0.00;0.00;;;;;;;48.79;11.98;100762.34;4987109;28;20089;-76
2023/09/14 13:02:33;;;;;;;;;;;;;;;;;;;;;
2023/09/14 13:04:59;;;;;;;0.00;0.00;;;;;;;50.66;10.71;100753.75;4974102;28;20029;-77
2023/09/14 13:07:24;;;;;;;0.00;0.00;;;;;;;48.51;11.24;100739.94;4969981;28;20053;-76
2023/09/14 13:10:06;;;;;;;0.00;0.00;;;;;;;43.57;14.59;100730.47;4963905;28;20026;-74
2023/09/14 13:12:33;;;;;;;0.00;0.00;;;;;;;41.85;15.71;100743.03;4962318;28;20109;-75
2023/09/14 13:15:01;;;;;;;0.00;0.00;;;;;;;41.22;16.96;100730.09;4976833;28;20050;-75
2023/09/14 13:17:26;;;;;;;0.00;0.00;;;;;;;43.18;16.28;100747.63;4951517;28;20627;-76
2023/09/14 13:19:52;;;;;;;0.00;0.00;;;;;;;47.49;13.61;100736.69;4996937;28;20045;-76
2023/09/14 13:22:20;;;;;;;0.00;0.00;;;;;;;49.17;11.74;100733.84;4983564;28;20045;-76
2023/09/14 13:24:45;;;;;;;0.00;0.00;;;;;;;47.62;12.65;100730.44;4966435;28;20520;-76
2023/09/14 13:27:21;;;;;;;;;;;;;;;;;;;;;
2023/09/14 13:29:46;;;;;;;0.00;0.00;;;;;;;48.74;12.47;100727.00;4988935;28;20023;-76
2023/09/14 13:32:13;;;;;;;0.00;0.00;;;;;;;50.09;10.84;100736.69;4985863;28;20030;-75
2023/09/14 13:34:38;;;;;;;0.00;0.00;;;;;;;50.51;10.61;100730.06;4981302;28;20037;-76
2023/09/14 13:37:03;;;;;;;0.00;0.00;;;;;;;46.62;12.14;100719.22;4964241;28;20034;-75
2023/09/14 13:39:29;;;;;;;0.00;0.00;;;;;;;42.86;15.10;100706.03;4986179;28;20034;-75
2023/09/14 13:41:54;;;;;;;0.00;0.00;;;;;;;40.61;16.81;100691.09;4970260;28;20058;-75
2023/09/14 13:44:20;;;;;;;0.00;0.00;;;;;;;38.46;18.92;100702.78;4970791;28;20121;-75
2023/09/14 13:46:45;;;;;;;0.00;0.00;;;;;;;36.26;21.34;100699.56;4947853;28;20430;-77
2023/09/14 13:49:11;;;;;;;0.00;0.00;;;;;;;34.69;22.73;100698.06;4975547;28;20034;-77
2023/09/14 13:51:36;;;;;;;0.00;0.00;;;;;;;33.68;24.24;100707.66;4985788;28;20036;-77
2023/09/14 13:54:01;;;;;;;0.00;0.00;;;;;;;34.12;24.59;100691.81;4967226;28;20026;-76
2023/09/14 13:56:27;;;;;;;0.00;0.00;;;;;;;34.29;23.80;100689.22;4947358;28;20040;-75
2023/09/14 13:58:52;;;;;;;0.00;0.00;;;;;;;35.27;23.83;100676.09;4967716;28;20396;-76
2023/09/14 14:01:18;;;;;;;0.00;0.00;;;;;;;39.89;20.11;100688.00;4941591;28;20038;-75
2023/09/14 14:03:44;;;;;;;0.00;0.00;;;;;;;43.00;17.71;100701.66;4951124;28;20034;-75
2023/09/14 14:06:09;;;;;;;0.00;0.00;;;;;;;44.67;14.79;100703.28;4950680;28;20484;-76
2023/09/14 14:08:35;;;;;;;0.00;0.00;;;;;;;44.67;15.33;100697.53;4948542;28;20057;-76
2023/09/14 14:11:03;;;;;;;0.00;0.00;;;;;;;45.51;14.71;100692.25;4946771;28;20029;-75
2023/09/14 14:13:29;;;;;;;0.00;0.00;;;;;;;45.44;14.33;100704.22;4978701;28;20037;-76
2023/09/14 14:15:54;;;;;;;0.00;0.00;;;;;;;42.92;15.18;100694.66;4969740;28;20070;-75
2023/09/14 14:18:20;;;;;;;0.00;0.00;;;;;;;42.78;16.04;100702.72;4966802;28;20728;-75
2023/09/14 14:20:45;;;;;;;0.00;0.00;;;;;;;44.62;15.23;100693.22;4978627;28;20026;-76
2023/09/14 14:23:11;;;;;;;0.00;0.00;;;;;;;45.65;13.84;100697.16;4969755;28;20045;-75
2023/09/14 14:25:37;;;;;;;0.00;0.00;;;;;;;46.85;13.20;100696.28;4965674;28;20037;-77
2023/09/14 14:28:02;;;;;;;0.00;0.00;;;;;;;47.78;12.28;100697.84;4982688;28;20028;-77
2023/09/14 14:30:28;;;;;;;0.00;0.00;;;;;;;47.89;11.77;100705.81;4966577;28;20481;-75
2023/09/14 14:32:55;;;;;;;0.00;0.00;;;;;;;47.87;12.38;100696.84;4977467;28;20037;-77
2023/09/14 14:35:20;;;;;;;0.00;0.00;;;;;;;47.64;12.48;100685.16;4977363;28;20030;-75
2023/09/14 14:37:53;;;;;;;0.00;0.00;;;;;;;48.58;11.92;100669.81;4965380;28;20054;-76
2023/09/14 14:40:18;;;;;;;;;;;;;;;48.53;11.54;100693.81;4953433;28;20027;-76
2023/09/14 14:42:43;;;;;;;0.00;0.00;;;;;;;43.66;14.46;100677.00;4962891;28;20307;-74
2023/09/14 14:45:09;;;;;;;0.00;0.00;;;;;;;38.82;17.67;100666.66;4951896;28;20276;-74
2023/09/14 14:47:36;;;;;;;0.00;0.00;;;;;;;36.14;20.32;100672.56;4956995;28;20470;-75
2023/09/14 14:50:01;;;;;;;0.00;0.00;;;;;;;34.44;22.44;100656.59;4943539;28;20089;-74
2023/09/14 14:52:31;;;;;;;0.00;0.00;;;;;;;33.26;23.61;100636.75;4975360;28;20043;-75
2023/09/14 14:54:57;;;;;;;0.00;0.00;;;;;;;33.57;24.02;100643.34;4970399;28;20099;-75
2023/09/14 14:57:22;;;;;;;0.00;0.00;;;;;;;36.57;22.65;100659.50;4976464;28;20034;-75